首页
METAR-TAF:

METAR-TAF

机场 :

萨瓦德尔, 西班牙

纬度: 41-31N, 经度: 002-06E, 海拔: 250米

当前天气观测

该预报发布于22分钟前的03:00 UTC
静风
温度 10°C
湿度 87%
气压 1022 hPa
能见度10公里或以上
1500米以下无云,无积雨云

METAR: LELL 240300Z AUTO 00000KT CAVOK 10/08 Q1022

时间: 05:22 (03:22 UTC)

预报

该预报发布于1小时和22分钟前的02:00 UTC
预报有效从24日的 03点(UTC)到 25日的 03点(UTC)
风速4节,风向多变
能见度10公里或以上
少量云层高于3500英尺
成为
从 24日的 11点(UTC)到 24日的 13点(UTC)
风速9节,风向西
短暂存在
从 24日的 17点(UTC)到 24日的 19点(UTC)
风速10节,风向西南

TAF: LELL 240200Z 2403/2503 VRB04KT 9999 FEW035 TX23/2413Z TN09/2405Z BECMG 2411/2413 27009KT TEMPO 2417/2419 23010KT

超过4000个机场的气象观测和天气预报(METAR&TAF报告)。

可查询的气象台以黄色和红色小点在地图上表示。

将鼠标移到小点上方,可查看气象台名称。

然后点击查看天气观测和预报。

如需切换地图:点击带黑十字的绿色按钮放大地图;点击带横线的绿色按钮缩小地图;或者点击绿色箭头查看邻近地区的地图。


METAR-TAF: